createdAt,value
2019-05-25T00:02:12.625Z,84.97
2019-05-25T00:04:45.158Z,85.55
2019-05-25T00:07:17.327Z,85.66
2019-05-25T00:09:49.614Z,85.15
2019-05-25T00:12:23.714Z,85.37
2019-05-25T00:14:55.790Z,85.98
2019-05-25T00:17:27.917Z,85.94
2019-05-25T00:20:00.219Z,86.52
2019-05-25T00:22:32.606Z,86.30
2019-05-25T00:25:05.964Z,86.21
2019-05-25T00:27:38.186Z,86.70
2019-05-25T00:30:10.641Z,86.89
2019-05-25T00:32:42.941Z,86.93
2019-05-25T00:35:15.064Z,86.99
2019-05-25T00:37:47.351Z,87.09
2019-05-25T00:40:19.472Z,86.97
2019-05-25T00:42:51.605Z,87.08
2019-05-25T00:45:23.816Z,86.86
2019-05-25T00:47:56.022Z,86.69
2019-05-25T00:50:28.293Z,86.27
2019-05-25T00:53:00.481Z,86.48
2019-05-25T00:55:32.738Z,86.25
2019-05-25T00:58:05.011Z,85.96
2019-05-25T01:00:37.273Z,86.05
2019-05-25T01:03:09.525Z,84.99
2019-05-25T01:05:41.717Z,85.02
2019-05-25T01:08:13.706Z,84.93
2019-05-25T01:10:45.937Z,84.55
2019-05-25T01:13:18.503Z,84.46
2019-05-25T01:15:50.677Z,84.34
2019-05-25T01:18:22.882Z,84.45
2019-05-25T01:20:55.128Z,84.45
2019-05-25T01:23:27.180Z,84.88
2019-05-25T01:25:59.341Z,84.45
2019-05-25T01:28:31.616Z,84.47
2019-05-25T01:31:03.831Z,84.31
2019-05-25T01:33:35.945Z,85.03
2019-05-25T01:36:08.231Z,84.78
2019-05-25T01:38:40.500Z,84.76
2019-05-25T01:41:12.773Z,84.29
2019-05-25T01:43:44.976Z,83.97
2019-05-25T01:46:17.550Z,83.45
2019-05-25T01:48:49.266Z,83.75
2019-05-25T01:51:21.556Z,83.60
2019-05-25T01:53:53.544Z,83.69
2019-05-25T01:56:25.778Z,84.10
2019-05-25T01:58:58.058Z,84.47
2019-05-25T02:01:30.424Z,84.54
2019-05-25T02:04:02.507Z,84.21
2019-05-25T02:06:35.716Z,84.65
2019-05-25T02:09:08.353Z,85.18
2019-05-25T02:11:40.624Z,85.43
2019-05-25T02:14:12.829Z,85.46
2019-05-25T02:16:45.070Z,85.21
2019-05-25T02:19:17.349Z,85.36
2019-05-25T02:21:49.621Z,85.59
2019-05-25T02:24:21.610Z,85.82
2019-05-25T02:26:53.662Z,85.73
2019-05-25T02:29:25.834Z,85.70
2019-05-25T02:31:57.821Z,85.77
2019-05-25T02:34:30.044Z,85.99
2019-05-25T02:37:02.201Z,86.12
2019-05-25T02:39:34.260Z,85.83
2019-05-25T02:42:06.641Z,86.23
2019-05-25T02:44:38.803Z,86.24
2019-05-25T02:47:11.153Z,86.06
2019-05-25T02:49:43.352Z,85.87
2019-05-25T02:52:15.413Z,86.06
2019-05-25T02:54:47.683Z,86.02
2019-05-25T02:57:19.966Z,86.03
2019-05-25T02:59:52.235Z,86.30
2019-05-25T03:02:24.702Z,86.19
2019-05-25T03:04:56.996Z,86.05
2019-05-25T03:07:30.055Z,85.69
2019-05-25T03:10:02.984Z,85.57
2019-05-25T03:12:34.834Z,85.88
2019-05-25T03:15:07.714Z,85.64
2019-05-25T03:17:39.785Z,85.23
2019-05-25T03:20:12.443Z,84.90
2019-05-25T03:22:44.543Z,85.46
2019-05-25T03:25:18.031Z,85.23
2019-05-25T03:27:50.228Z,85.07
2019-05-25T03:30:33.482Z,85.15
2019-05-25T03:33:05.870Z,84.90
2019-05-25T03:35:37.918Z,84.75
2019-05-25T03:38:10.929Z,84.72
2019-05-25T03:40:43.068Z,85.44
2019-05-25T03:43:15.136Z,84.88
2019-05-25T03:45:47.331Z,82.95
2019-05-25T03:48:19.392Z,82.70
2019-05-25T03:50:51.446Z,83.25
2019-05-25T03:53:23.746Z,82.37
2019-05-25T03:56:05.197Z,82.47
2019-05-25T03:58:29.853Z,82.49
2019-05-25T04:01:02.020Z,83.36
2019-05-25T04:03:34.079Z,81.68
2019-05-25T04:06:06.329Z,81.72
2019-05-25T04:08:38.585Z,81.50
2019-05-25T04:11:10.876Z,80.17
2019-05-25T04:13:43.174Z,77.17
2019-05-25T04:16:15.411Z,77.35
2019-05-25T04:18:47.529Z,74.29
2019-05-25T04:21:19.730Z,73.46
2019-05-25T04:23:51.938Z,73.91
2019-05-25T04:26:27.451Z,73.04
2019-05-25T04:28:58.429Z,75.94
2019-05-25T04:31:30.522Z,77.84
2019-05-25T04:34:02.516Z,78.57
2019-05-25T04:36:34.703Z,78.54
2019-05-25T04:39:08.469Z,80.37
2019-05-25T04:41:40.650Z,79.69
2019-05-25T04:44:12.735Z,80.89
2019-05-25T04:46:45.007Z,81.87
2019-05-25T04:49:17.200Z,81.80
2019-05-25T04:51:49.172Z,80.36
2019-05-25T04:54:21.232Z,79.57
2019-05-25T04:56:53.469Z,80.31
2019-05-25T04:59:25.675Z,80.41
2019-05-25T05:01:57.837Z,80.26
2019-05-25T05:04:30.908Z,79.68
2019-05-25T05:07:02.951Z,78.99
2019-05-25T05:09:35.007Z,78.89
2019-05-25T05:12:07.158Z,78.79
2019-05-25T05:14:39.220Z,77.68
2019-05-25T05:17:11.272Z,78.15
2019-05-25T05:19:44.626Z,78.27
2019-05-25T05:22:16.897Z,78.55
2019-05-25T05:24:49.109Z,78.09
2019-05-25T05:27:21.330Z,77.46
2019-05-25T05:29:53.531Z,77.75
2019-05-25T05:32:27.812Z,78.29
2019-05-25T05:35:00.613Z,77.73
2019-05-25T05:37:32.879Z,76.78
2019-05-25T05:40:08.174Z,77.66
2019-05-25T05:42:43.306Z,78.21
2019-05-25T05:45:15.405Z,78.25
2019-05-25T05:47:50.172Z,78.45
2019-05-25T05:50:22.360Z,76.53
2019-05-25T05:52:55.758Z,76.84
2019-05-25T05:55:30.860Z,76.77
2019-05-25T05:58:02.925Z,77.93
2019-05-25T06:00:34.988Z,76.85
2019-05-25T06:03:06.982Z,75.61
2019-05-25T06:05:39.055Z,74.54
2019-05-25T06:08:11.222Z,73.33
2019-05-25T06:10:43.595Z,70.91
2019-05-25T06:13:15.831Z,70.26
2019-05-25T06:15:48.106Z,70.32
2019-05-25T06:18:20.378Z,71.81
2019-05-25T06:20:52.623Z,71.22
2019-05-25T06:23:24.779Z,69.38
2019-05-25T06:25:57.078Z,65.61
2019-05-25T06:28:29.433Z,67.44
2019-05-25T06:31:01.818Z,67.55
2019-05-25T06:33:34.095Z,68.96
2019-05-25T06:36:06.356Z,67.57
2019-05-25T06:38:38.633Z,66.58
2019-05-25T06:41:10.699Z,66.08
2019-05-25T06:43:42.876Z,65.00
2019-05-25T06:46:15.129Z,66.92
2019-05-25T06:48:47.398Z,66.15
2019-05-25T06:51:19.592Z,66.17
2019-05-25T06:53:51.838Z,66.49
2019-05-25T06:56:24.042Z,64.83
2019-05-25T06:58:56.471Z,66.15
2019-05-25T07:01:29.085Z,66.53
2019-05-25T07:04:01.236Z,65.91
2019-05-25T07:06:33.530Z,63.93
2019-05-25T07:09:07.468Z,63.05
2019-05-25T07:11:39.569Z,63.23
2019-05-25T07:14:11.617Z,63.59
2019-05-25T07:16:43.837Z,63.66
2019-05-25T07:19:16.025Z,63.83
2019-05-25T07:21:48.167Z,63.10
2019-05-25T07:24:20.219Z,62.18
2019-05-25T07:26:52.499Z,62.59
2019-05-25T07:29:24.759Z,63.23
2019-05-25T07:31:58.093Z,63.56
2019-05-25T07:34:30.311Z,63.76
2019-05-25T07:37:02.594Z,63.03
2019-05-25T07:39:34.651Z,60.47
2019-05-25T07:42:06.850Z,59.94
2019-05-25T07:44:39.097Z,58.94
